Time;durP1;ratioP1;P1;durP2;ratioP2;P2;SDS_P1;SDS_P2;PMS_P1;PMS_P2;Temp;Humidity;BMP_temperature;BMP_pressure;BME280_temperature;BME280_humidity;BME280_pressure;Samples;Min_cycle;Max_cycle;Signal;HPM_P1;HPM_P2
2022/10/30 00:01:16;;;;;;;20.63;6.70;;;;;;;-143.48;71.98;78420.69;5012384;28;20026;-76
2022/10/30 00:03:42;;;;;;;22.30;6.78;;;;;;;-143.48;72.33;78434.59;5012284;28;20024;-77
2022/10/30 00:06:07;;;;;;;22.00;6.78;;;;;;;-143.48;72.36;78428.63;5013686;28;20109;-76
2022/10/30 00:08:33;;;;;;;23.27;7.13;;;;;;;-143.48;72.43;78424.66;5013617;28;20410;-76
2022/10/30 00:11:09;;;;;;;20.80;6.78;;;;;;;-143.48;72.19;78420.69;5013465;28;20026;-76
2022/10/30 00:13:35;;;;;;;24.48;7.28;;;;;;;-143.48;72.18;78418.72;5013426;28;20075;-76
2022/10/30 00:16:03;;;;;;;18.33;6.13;;;;;;;-143.48;72.42;78428.63;5012296;28;20124;-76
2022/10/30 00:18:28;;;;;;;20.55;6.78;;;;;;;-143.48;72.25;78422.69;5012147;28;20472;-76
2022/10/30 00:20:54;;;;;;;22.48;6.50;;;;;;;-143.48;72.12;78416.72;5012215;28;20026;-76
2022/10/30 00:23:19;;;;;;;22.88;6.80;;;;;;;-143.48;72.00;78414.75;5012119;28;20029;-76
2022/10/30 00:25:44;;;;;;;20.17;6.40;;;;;;;-143.48;72.35;78420.69;5013465;28;20022;-76
2022/10/30 00:28:10;;;;;;;19.02;7.07;;;;;;;-143.48;72.36;78420.69;5013400;28;20025;-76
2022/10/30 00:30:35;;;;;;;17.10;7.03;;;;;;;-143.48;72.60;78426.66;5013288;28;20029;-77
2022/10/30 00:33:00;;;;;;;17.73;6.97;;;;;;;-143.48;72.46;78434.59;5016096;28;20026;-77
2022/10/30 00:35:26;;;;;;;19.02;6.65;;;;;;;-143.48;72.93;78446.47;5016023;28;20092;-76
2022/10/30 00:37:51;;;;;;;18.88;6.45;;;;;;;-143.48;72.85;78444.50;5017373;28;20033;-77
2022/10/30 00:40:18;;;;;;;24.08;7.05;;;;;;;-143.48;73.10;78446.47;5016068;28;20026;-76
2022/10/30 00:42:43;;;;;;;25.48;7.15;;;;;;;-143.48;73.03;78444.50;5016006;28;20117;-76
2022/10/30 00:45:14;;;;;;;18.40;6.90;;;;;;;-143.48;73.59;78446.47;5015966;28;20065;-76
2022/10/30 00:47:53;;;;;;;23.67;6.85;;;;;;;-143.48;72.85;78438.53;5015980;28;20030;-76
2022/10/30 00:50:26;;;;;;;14.20;6.32;;;;;;;-143.48;73.18;78446.47;5017165;28;20034;-76
2022/10/30 00:52:57;;;;;;;22.48;6.93;;;;;;;-143.48;72.88;78436.56;5015854;28;20463;-76
2022/10/30 00:55:30;;;;;;;21.60;7.05;;;;;;;-143.48;72.96;78440.53;5016861;28;20026;-76
2022/10/30 00:57:56;;;;;;;;;;;;;;;-143.48;72.92;78440.53;5016139;28;20030;-76
2022/10/30 01:00:26;;;;;;;20.40;6.60;;;;;;;-143.48;73.06;78456.41;5032264;28;20008;-77
2022/10/30 01:02:52;;;;;;;20.13;7.13;;;;;;;-143.48;73.43;78458.38;5017353;28;20022;-77
2022/10/30 01:05:20;;;;;;;22.85;6.55;;;;;;;-143.48;73.08;78454.41;5016983;28;20036;-77
2022/10/30 01:07:45;;;;;;;16.00;6.53;;;;;;;-143.48;73.40;78464.34;5016795;28;20472;-77
2022/10/30 01:10:12;;;;;;;18.50;6.43;;;;;;;-143.48;73.46;78464.34;5032127;28;20083;-77
2022/10/30 01:12:38;;;;;;;23.05;6.82;;;;;;;-143.48;73.86;78476.22;5016718;28;20033;-77
2022/10/30 01:15:05;;;;;;;24.60;6.60;;;;;;;-143.48;73.62;78468.28;5016665;28;20072;-77
2022/10/30 01:18:01;;;;;;;24.98;7.30;;;;;;;-143.48;73.73;78476.22;5016725;28;20117;-77
2022/10/30 01:20:52;;;;;;;21.00;7.40;;;;;;;-143.48;74.74;78490.13;5016897;28;20380;-77
2022/10/30 01:23:47;;;;;;;24.23;7.07;;;;;;;-143.48;75.19;78504.00;5016472;28;20022;-77
2022/10/30 01:26:31;;;;;;;19.63;6.78;;;;;;;-143.48;75.38;78500.03;5015653;28;20108;-76
2022/10/30 01:29:20;;;;;;;23.60;7.15;;;;;;;-143.48;75.14;78496.06;5015700;28;20026;-77
2022/10/30 01:32:26;;;;;;;26.55;7.22;;;;;;;-143.48;74.96;78504.00;5013460;28;20033;-76
2022/10/30 01:35:28;;;;;;;20.17;6.60;;;;;;;-143.48;75.06;78507.97;5013003;28;20417;-77
2022/10/30 01:38:00;;;;;;;27.13;7.53;;;;;;;-143.48;75.62;78517.88;5005203;28;20125;-76
2022/10/30 01:40:26;;;;;;;19.25;7.18;;;;;;;-143.48;75.73;78527.78;5012680;28;20120;-76
2022/10/30 01:42:54;;;;;;;20.65;6.65;;;;;;;-143.48;75.64;78535.72;5013002;28;20100;-76
2022/10/30 01:45:44;;;;;;;17.02;7.22;;;;;;;-143.48;76.23;78547.63;5014185;28;20491;-76
2022/10/30 01:48:23;;;;;;;14.95;6.40;;;;;;;-143.48;76.46;78545.66;5013983;28;20049;-76
2022/10/30 01:50:51;;;;;;;20.10;7.00;;;;;;;-143.48;76.30;78549.59;5012728;28;20535;-76
2022/10/30 01:53:42;;;;;;;27.73;7.45;;;;;;;-143.48;76.88;78549.59;5015564;28;20425;-76
2022/10/30 01:56:27;;;;;;;21.45;7.10;;;;;;;-143.48;76.95;78553.56;5015950;28;20032;-76
2022/10/30 01:59:14;;;;;;;23.40;7.53;;;;;;;-143.48;76.73;78549.59;5015784;28;20036;-76
2022/10/30 02:01:39;;;;;;;27.08;6.95;;;;;;;-143.48;76.93;78555.56;5015788;28;20025;-76
2022/10/30 02:04:07;;;;;;;21.33;7.82;;;;;;;-143.48;77.02;78555.56;5014516;28;20168;-76
2022/10/30 02:06:34;;;;;;;22.08;7.53;;;;;;;-143.48;77.07;78551.59;5031045;28;20021;-76
2022/10/30 02:08:59;;;;;;;20.75;7.03;;;;;;;-143.48;77.18;78551.59;5015753;28;20030;-76
2022/10/30 02:11:25;;;;;;;26.35;8.27;;;;;;;-143.48;77.12;78555.56;5014668;28;20033;-77
2022/10/30 02:13:54;;;;;;;18.05;7.70;;;;;;;-143.48;77.57;78561.50;5015567;28;20022;-78
2022/10/30 02:16:21;;;;;;;20.40;7.47;;;;;;;-143.48;77.91;78559.53;5030905;28;20036;-79
2022/10/30 02:18:46;;;;;;;22.50;7.07;;;;;;;-143.48;78.04;78573.41;5015756;28;20494;-77
2022/10/30 02:21:12;;;;;;;21.05;7.50;;;;;;;-143.48;77.93;78579.34;5015559;28;20022;-78
2022/10/30 02:23:37;;;;;;;22.60;7.60;;;;;;;-143.48;78.20;78577.38;5015417;28;20026;-78
2022/10/30 02:26:03;;;;;;;22.17;7.85;;;;;;;-143.48;78.48;78583.31;5015136;28;20469;-78
2022/10/30 02:28:28;;;;;;;25.95;7.75;;;;;;;-143.48;78.64;78591.25;5014167;28;20026;-78
2022/10/30 02:30:54;;;;;;;31.42;8.45;;;;;;;-143.48;78.82;78591.25;5014187;28;20125;-78
2022/10/30 02:33:19;;;;;;;27.73;7.80;;;;;;;-143.48;79.17;78601.19;5015313;28;20034;-78
2022/10/30 02:35:44;;;;;;;16.88;7.47;;;;;;;-143.48;79.19;78605.16;5015144;28;20029;-78
2022/10/30 02:38:09;;;;;;;23.63;7.95;;;;;;;-143.48;79.36;78609.09;5013944;28;20018;-78
2022/10/30 02:40:35;;;;;;;25.48;7.68;;;;;;;-143.48;79.82;78623.00;5015182;28;20420;-78
2022/10/30 02:43:00;;;;;;;23.13;8.18;;;;;;;-143.48;80.50;78634.91;5013833;28;20526;-78
2022/10/30 02:45:25;;;;;;;20.38;8.10;;;;;;;-143.48;80.76;78642.81;5013743;28;20028;-78
2022/10/30 02:47:51;;;;;;;25.33;8.80;;;;;;;-143.48;80.72;78640.84;5014872;28;20393;-78
2022/10/30 02:50:16;;;;;;;19.23;7.65;;;;;;;-143.48;80.29;78636.88;5013752;28;20176;-78
2022/10/30 02:52:41;;;;;;;26.23;8.13;;;;;;;-143.48;80.92;78634.91;5013688;28;20393;-78
2022/10/30 02:55:07;;;;;;;21.60;7.78;;;;;;;-143.48;81.00;78650.75;5029856;28;20014;-78
2022/10/30 02:57:32;;;;;;;24.27;8.23;;;;;;;-143.48;81.36;78654.72;5013507;28;20506;-78
2022/10/30 02:59:58;;;;;;;19.15;7.93;;;;;;;-143.48;81.64;78668.59;5014806;28;20503;-78
2022/10/30 03:02:23;;;;;;;30.33;8.40;;;;;;;-143.48;82.09;78672.56;5014745;28;20025;-78
2022/10/30 03:04:48;;;;;;;17.98;7.78;;;;;;;-143.48;82.53;78684.47;5029950;28;20072;-77
2022/10/30 03:07:14;;;;;;;20.00;8.02;;;;;;;-143.48;82.81;78694.41;5014666;28;20025;-77
2022/10/30 03:09:39;;;;;;;21.95;7.60;;;;;;;-143.48;83.24;78700.34;5014558;28;20468;-77
2022/10/30 03:12:04;;;;;;;24.13;8.13;;;;;;;-143.48;83.87;78692.41;5014706;28;20037;-77
2022/10/30 03:14:30;;;;;;;22.85;7.63;;;;;;;-143.48;83.86;78698.38;5014474;28;20098;-77
2022/10/30 03:16:55;;;;;;;18.95;7.80;;;;;;;-143.48;83.96;78720.19;5014647;28;20034;-77
2022/10/30 03:19:20;;;;;;;27.33;8.18;;;;;;;-143.48;84.23;78726.13;5013088;28;20453;-77
2022/10/30 03:21:46;;;;;;;19.67;8.00;;;;;;;-143.48;84.58;78734.06;5013248;28;20076;-77
2022/10/30 03:24:11;;;;;;;21.10;8.15;;;;;;;-143.48;84.97;78742.00;5014423;28;20068;-77
2022/10/30 03:26:37;;;;;;;26.38;8.68;;;;;;;-143.48;84.76;78738.03;5012946;28;20022;-78
2022/10/30 03:29:02;;;;;;;25.58;8.90;;;;;;;-143.48;85.42;78743.97;5013223;28;20037;-78
2022/10/30 03:31:29;;;;;;;26.70;7.80;;;;;;;-143.48;85.28;78745.97;5014215;28;20362;-78
2022/10/30 03:33:55;;;;;;;17.08;8.15;;;;;;;-143.48;85.77;78751.91;5012786;28;20029;-78
2022/10/30 03:36:20;;;;;;;30.58;8.38;;;;;;;-143.48;85.83;78755.88;5012811;28;20041;-78
2022/10/30 03:38:45;;;;;;;20.20;8.13;;;;;;;-143.48;85.68;78761.84;5014466;28;20033;-78
2022/10/30 03:41:10;;;;;;;25.40;7.97;;;;;;;-143.48;85.65;78767.78;5029289;28;20033;-76
2022/10/30 03:43:36;;;;;;;23.85;8.57;;;;;;;-143.48;85.74;78775.72;5013964;28;20018;-77
2022/10/30 03:46:01;;;;;;;21.98;8.02;;;;;;;-143.48;86.59;78759.84;5014067;28;20026;-76
2022/10/30 03:48:28;;;;;;;23.55;8.70;;;;;;;-143.48;86.33;78751.91;5028989;28;20124;-78
2022/10/30 03:50:55;;;;;;;22.35;8.45;;;;;;;-143.48;85.63;78736.03;5013949;28;20046;-77
2022/10/30 03:53:22;;;;;;;20.52;8.32;;;;;;;-143.48;86.04;78742.00;5012588;28;20021;-78
2022/10/30 03:55:48;;;;;;;28.60;8.90;;;;;;;-143.48;85.80;78732.09;5014017;28;20057;-78
2022/10/30 03:58:13;;;;;;;23.90;8.73;;;;;;;-143.48;85.59;78743.97;5028989;28;20060;-78
2022/10/30 04:00:38;;;;;;;23.17;8.00;;;;;;;-143.48;85.47;78728.13;5012496;28;20420;-78
2022/10/30 04:03:08;;;;;;;21.77;8.15;;;;;;;-143.48;85.65;78724.16;5013678;28;20022;-77
2022/10/30 04:05:34;;;;;;;26.13;8.85;;;;;;;-143.48;85.56;78732.09;5013243;28;20453;-77
2022/10/30 04:08:02;;;;;;;20.05;8.50;;;;;;;-143.48;85.52;78724.16;5013598;28;20111;-78
2022/10/30 04:10:28;;;;;;;27.25;8.70;;;;;;;-143.48;85.90;78720.19;5012441;28;20030;-78
2022/10/30 04:13:06;;;;;;;23.63;9.27;;;;;;;-143.48;85.77;78724.16;5013565;28;20152;-78
2022/10/30 04:15:32;;;;;;;24.25;8.82;;;;;;;-143.48;84.83;78740.00;5012312;28;20022;-78
2022/10/30 04:17:58;;;;;;;23.65;8.15;;;;;;;-143.48;85.23;78745.97;5012230;28;20400;-77
2022/10/30 04:20:25;;;;;;;30.25;8.82;;;;;;;-143.48;86.29;78761.84;5012324;28;20024;-78
2022/10/30 04:23:02;;;;;;;20.42;8.52;;;;;;;-143.48;86.73;78747.94;5013516;28;20032;-78
2022/10/30 04:25:29;;;;;;;23.33;8.60;;;;;;;-143.48;86.62;78745.97;5013378;28;20033;-78
2022/10/30 04:27:55;;;;;;;25.83;8.60;;;;;;;-143.48;86.40;78747.94;5013522;28;20097;-78
2022/10/30 04:30:21;;;;;;;22.67;8.68;;;;;;;-143.48;86.52;78753.91;5013407;28;20053;-78
2022/10/30 04:32:51;;;;;;;20.83;8.95;;;;;;;-143.48;86.58;78757.88;5012164;28;20022;-78
2022/10/30 04:35:19;;;;;;;22.15;8.68;;;;;;;-143.48;86.64;78755.88;5011968;28;20043;-78
2022/10/30 04:37:55;;;;;;;25.17;8.63;;;;;;;-143.48;86.23;78759.84;5013375;28;20069;-78
2022/10/30 04:40:22;;;;;;;18.95;8.77;;;;;;;-143.48;86.81;78773.72;5013327;28;20030;-78
2022/10/30 04:42:47;;;;;;;25.23;8.85;;;;;;;-143.48;87.17;78785.63;5013220;28;20068;-77
2022/10/30 04:45:12;;;;;;;27.80;9.02;;;;;;;-143.48;87.28;78785.63;5011969;28;20046;-78
2022/10/30 04:47:38;;;;;;;20.52;8.80;;;;;;;-143.48;87.08;78773.72;5013170;28;20034;-78
2022/10/30 04:50:03;;;;;;;23.23;8.98;;;;;;;-143.48;87.28;78785.63;5011824;28;20100;-76
2022/10/30 04:52:29;;;;;;;20.38;8.70;;;;;;;-143.48;87.26;78785.63;5011948;28;20393;-77
2022/10/30 04:54:54;;;;;;;26.95;9.95;;;;;;;-143.48;87.31;78789.59;5013154;28;20397;-77
2022/10/30 04:57:19;;;;;;;25.60;9.32;;;;;;;-143.48;87.17;78789.59;5028285;28;20044;-78
2022/10/30 04:59:44;;;;;;;24.63;8.85;;;;;;;-143.48;87.43;78793.56;5012078;28;20483;-78
2022/10/30 05:02:10;;;;;;;23.90;8.93;;;;;;;-143.48;87.68;78801.50;5011917;28;20022;-78
2022/10/30 05:04:35;;;;;;;26.10;9.75;;;;;;;-143.48;87.89;78799.50;5013169;28;20104;-78
2022/10/30 05:07:02;;;;;;;23.50;9.85;;;;;;;-143.48;87.57;78799.50;5013009;28;20022;-77
2022/10/30 05:09:28;;;;;;;29.23;9.77;;;;;;;-143.48;87.63;78805.47;5013002;28;20021;-78
2022/10/30 05:11:53;;;;;;;24.45;9.35;;;;;;;-143.48;87.70;78815.38;5013121;28;20033;-78
2022/10/30 05:14:18;;;;;;;24.98;9.38;;;;;;;-143.48;87.88;78813.41;4995391;28;20080;-78
2022/10/30 05:16:43;;;;;;;23.58;9.05;;;;;;;-143.48;88.11;78817.38;5029418;28;20026;-78
2022/10/30 05:19:09;;;;;;;23.98;9.18;;;;;;;-143.48;87.99;78809.44;5015428;28;20030;-78
2022/10/30 05:21:34;;;;;;;25.55;10.32;;;;;;;-143.48;88.00;78811.41;5016809;28;20029;-78
2022/10/30 05:23:59;;;;;;;30.02;9.95;;;;;;;-143.48;88.07;78803.47;5015321;28;20109;-78
2022/10/30 05:26:26;;;;;;;25.02;9.70;;;;;;;-143.48;87.96;78805.47;5016523;28;20037;-77
2022/10/30 05:28:51;;;;;;;33.22;9.80;;;;;;;-143.48;88.04;78801.50;5016522;28;20034;-78
2022/10/30 05:31:16;;;;;;;22.58;9.77;;;;;;;-143.48;87.75;78795.53;5016535;28;20541;-77
2022/10/30 05:33:41;;;;;;;24.02;9.73;;;;;;;-143.48;87.94;78799.50;5016406;28;20050;-78
2022/10/30 05:36:07;;;;;;;26.60;9.57;;;;;;;-143.48;88.21;78799.50;5015029;28;20030;-78
2022/10/30 05:38:32;;;;;;;27.73;10.70;;;;;;;-143.48;88.29;78801.50;5015080;28;20476;-78
2022/10/30 05:40:58;;;;;;;23.40;10.50;;;;;;;-143.48;88.37;78799.50;5014925;28;20018;-77
2022/10/30 05:43:23;;;;;;;29.50;10.20;;;;;;;-143.48;88.22;78797.53;5016216;28;20484;-78
2022/10/30 05:45:49;;;;;;;32.03;10.52;;;;;;;-143.48;88.20;78805.47;5016154;28;20033;-78
2022/10/30 05:48:14;;;;;;;23.70;9.13;;;;;;;-143.48;88.20;78803.47;5014826;28;20633;-77
2022/10/30 05:50:39;;;;;;;24.17;9.75;;;;;;;-143.48;88.45;78819.34;5016079;28;20030;-78
2022/10/30 05:53:05;;;;;;;25.33;9.93;;;;;;;-143.48;88.14;78821.34;5014743;28;20036;-78
2022/10/30 05:55:31;;;;;;;35.10;10.43;;;;;;;-143.48;88.17;78829.25;5016071;28;20068;-78
2022/10/30 05:57:58;;;;;;;23.45;9.77;;;;;;;-143.48;88.48;78841.16;5014788;28;20033;-78
2022/10/30 06:00:24;;;;;;;27.27;10.73;;;;;;;-143.48;88.34;78839.19;5016040;28;20037;-78
2022/10/30 06:02:50;;;;;;;24.45;11.02;;;;;;;-143.48;88.77;78853.06;5015932;28;20076;-78
2022/10/30 06:05:15;;;;;;;36.80;10.60;;;;;;;-143.48;88.67;78853.06;5031070;28;20057;-78
2022/10/30 06:07:40;;;;;;;25.67;9.60;;;;;;;-143.48;89.18;78851.09;5015861;28;20475;-77
2022/10/30 06:10:06;;;;;;;22.45;10.02;;;;;;;-143.48;89.29;78851.09;5015892;28;20041;-77
2022/10/30 06:12:31;;;;;;;30.67;10.65;;;;;;;-143.48;89.08;78845.13;5014609;28;20025;-77
2022/10/30 06:14:56;;;;;;;27.90;10.43;;;;;;;-143.48;89.16;78864.97;5015533;28;20030;-77
2022/10/30 06:17:22;;;;;;;21.67;9.85;;;;;;;-143.48;89.31;78853.06;5015706;28;20112;-77
2022/10/30 06:19:47;;;;;;;22.02;10.38;;;;;;;-143.48;89.32;78851.09;5014293;28;20048;-77
2022/10/30 06:22:12;;;;;;;23.13;10.20;;;;;;;-143.48;89.39;78839.19;5015566;28;20037;-77
2022/10/30 06:24:38;;;;;;;24.90;10.20;;;;;;;-143.48;89.07;78841.16;5014186;28;20029;-77
2022/10/30 06:27:03;;;;;;;25.70;11.10;;;;;;;-143.48;88.91;78853.06;5014277;28;20040;-77
2022/10/30 06:29:28;;;;;;;26.98;10.07;;;;;;;-143.48;88.77;78861.00;5014744;28;20491;-78
2022/10/30 06:31:53;;;;;;;27.65;11.00;;;;;;;-143.48;88.64;78868.94;5030803;28;20076;-78
2022/10/30 06:34:19;;;;;;;28.08;11.00;;;;;;;-143.48;88.65;78857.03;5013844;28;20416;-78
2022/10/30 06:36:44;;;;;;;30.95;10.50;;;;;;;-143.48;88.62;78861.00;5015184;28;20037;-78
2022/10/30 06:39:09;;;;;;;31.70;11.10;;;;;;;-143.48;88.27;78868.94;5030349;28;20022;-77
2022/10/30 06:41:34;;;;;;;24.70;10.88;;;;;;;-143.48;89.10;78862.97;5015206;28;20053;-77
2022/10/30 06:44:00;;;;;;;27.45;11.25;;;;;;;-143.48;89.00;78864.97;5015127;28;20112;-77
2022/10/30 06:46:25;;;;;;;28.13;11.60;;;;;;;-143.48;88.85;78861.00;5015117;28;20022;-78
2022/10/30 06:48:51;;;;;;;24.85;10.55;;;;;;;-143.48;89.06;78864.97;5013814;28;20041;-77
2022/10/30 06:51:16;;;;;;;23.90;10.57;;;;;;;-143.48;88.66;78872.91;5015099;28;20034;-77
2022/10/30 06:53:42;;;;;;;21.90;10.63;;;;;;;-143.48;89.23;78872.91;5014913;28;20053;-77
2022/10/30 06:56:08;;;;;;;28.77;11.20;;;;;;;-143.48;88.73;78857.03;5014970;28;20034;-77
2022/10/30 06:58:37;;;;;;;21.52;11.27;;;;;;;-143.48;88.25;78853.06;5014930;28;20037;-78
2022/10/30 07:01:06;;;;;;;26.30;11.10;;;;;;;-143.48;87.89;78835.22;5013457;28;20425;-78
2022/10/30 07:03:32;;;;;;;25.60;10.88;;;;;;;-143.48;87.23;78823.31;5014475;28;20045;-78
2022/10/30 07:05:58;;;;;;;31.33;11.10;;;;;;;-143.48;86.02;78805.47;5014771;28;20026;-78
2022/10/30 07:08:23;;;;;;;26.23;10.88;;;;;;;-143.48;85.49;78801.50;5013403;28;20052;-77
2022/10/30 07:10:49;;;;;;;29.10;11.52;;;;;;;-143.48;85.07;78797.53;5013754;28;20465;-77
2022/10/30 07:13:14;;;;;;;25.25;10.52;;;;;;;-143.48;85.46;78811.41;5014565;28;20073;-77
2022/10/30 07:15:39;;;;;;;26.73;11.63;;;;;;;-143.48;85.74;78805.47;5014500;28;20109;-77
2022/10/30 07:18:05;;;;;;;25.48;10.75;;;;;;;-143.48;85.31;78801.50;5014464;28;20079;-78
2022/10/30 07:20:32;;;;;;;27.17;11.30;;;;;;;-143.48;84.97;78785.63;5013328;28;20488;-77
2022/10/30 07:22:58;;;;;;;29.38;11.13;;;;;;;-143.48;84.56;78791.59;5013127;28;20117;-78
2022/10/30 07:25:24;;;;;;;30.30;10.88;;;;;;;-143.48;84.11;78767.78;5029560;28;20057;-77
2022/10/30 07:27:51;;;;;;;26.92;11.02;;;;;;;-143.48;83.22;78749.94;5014280;28;20480;-78
2022/10/30 07:30:18;;;;;;;26.50;11.05;;;;;;;-143.48;83.03;78728.13;5014276;28;20029;-78
2022/10/30 07:32:44;;;;;;;23.30;11.23;;;;;;;-143.48;78.88;78583.31;5014204;28;20048;-78
2022/10/30 07:35:12;;;;;;;29.77;10.70;;;;;;;-143.48;66.14;78260.06;5014135;28;20083;-78
2022/10/30 07:37:38;;;;;;;20.95;9.40;;;;;;;-143.48;59.70;78111.31;5013640;28;20030;-78
2022/10/30 07:40:05;;;;;;;29.00;9.23;;;;;;;-143.48;58.15;78097.44;5012113;28;20057;-78
2022/10/30 07:42:31;;;;;;;24.17;9.05;;;;;;;-143.48;55.51;78010.19;5013954;28;20025;-78
2022/10/30 07:44:56;;;;;;;23.75;8.73;;;;;;;-143.48;54.09;77958.63;5014260;28;20422;-78
2022/10/30 07:47:22;;;;;;;24.60;8.95;;;;;;;-143.48;52.38;77903.09;5014113;28;20116;-78
2022/10/30 07:49:47;;;;;;;25.98;9.10;;;;;;;-143.48;51.46;77833.69;5013862;28;20139;-79
2022/10/30 07:52:12;;;;;;;27.55;9.07;;;;;;;-143.48;49.72;77770.25;5012698;28;20084;-79
2022/10/30 07:54:37;;;;;;;17.30;8.55;;;;;;;-143.48;50.82;77833.69;5013817;28;20108;-76
2022/10/30 07:57:03;;;;;;;17.35;8.10;;;;;;;-143.48;50.08;77805.94;5012579;28;20384;-76
2022/10/30 07:59:28;;;;;;;19.38;8.40;;;;;;;-143.48;49.20;77754.38;5013934;28;20030;-76
2022/10/30 08:01:54;;;;;;;18.00;8.45;;;;;;;-143.48;49.71;77764.31;5013981;28;20104;-76
2022/10/30 08:04:19;;;;;;;22.70;8.20;;;;;;;-143.48;47.76;77706.78;5013250;28;20017;-76
2022/10/30 08:06:44;;;;;;;20.05;8.90;;;;;;;-143.48;56.51;78125.22;5012831;28;20484;-76
2022/10/30 08:09:10;;;;;;;20.38;8.45;;;;;;;-143.48;61.72;78258.06;5013683;28;20021;-78
2022/10/30 08:11:35;;;;;;;18.50;8.80;;;;;;;-143.48;63.13;78271.97;5012366;28;20037;-78
2022/10/30 08:14:00;;;;;;;26.90;8.60;;;;;;;-143.48;65.00;78321.53;5013587;28;20427;-78
2022/10/30 08:16:26;;;;;;;21.58;8.73;;;;;;;-143.48;65.99;78349.31;5013561;28;20113;-78
2022/10/30 08:18:52;;;;;;;22.00;9.20;;;;;;;-143.48;67.63;78351.28;5012333;28;20056;-78
2022/10/30 08:21:17;;;;;;;24.45;8.90;;;;;;;-143.48;67.37;78353.28;5013632;28;20038;-78
2022/10/30 08:23:43;;;;;;;21.63;8.73;;;;;;;-143.48;67.77;78351.28;5012271;28;20068;-78
2022/10/30 08:26:08;;;;;;;28.67;9.00;;;;;;;-143.48;67.14;78341.38;5012407;28;20109;-78
2022/10/30 08:28:33;;;;;;;19.95;8.90;;;;;;;-143.48;67.32;78327.50;5012868;28;20096;-78
2022/10/30 08:31:00;;;;;;;24.08;9.45;;;;;;;-143.48;66.70;78303.69;5013242;28;20029;-78
2022/10/30 08:33:25;;;;;;;25.55;9.70;;;;;;;-143.48;66.47;78309.63;5012372;28;20030;-78
2022/10/30 08:35:55;;;;;;;22.23;9.52;;;;;;;-143.48;64.44;78262.03;5011905;28;20034;-78
2022/10/30 08:38:20;;;;;;;23.88;9.73;;;;;;;-143.48;65.45;78283.84;5027690;28;20076;-78
2022/10/30 08:40:46;;;;;;;21.30;8.88;;;;;;;-143.48;66.06;78305.66;5013736;28;20089;-77
2022/10/30 08:43:12;;;;;;;23.33;9.18;;;;;;;-143.48;65.95;78287.81;5011951;28;20576;-77
2022/10/30 08:45:37;;;;;;;28.45;9.90;;;;;;;-143.48;59.98;78043.91;5028038;28;20136;-77
2022/10/30 08:48:04;;;;;;;31.05;8.70;;;;;;;-143.48;48.41;77605.66;5012789;28;20104;-78
2022/10/30 08:50:31;;;;;;;16.98;8.25;;;;;;;-143.48;44.91;77443.09;5013334;28;20139;-78
2022/10/30 08:53:00;;;;;;;21.10;8.43;;;;;;;-143.48;42.21;77330.06;5031402;28;20484;-78
2022/10/30 08:55:26;;;;;;;22.55;7.43;;;;;;;-143.48;41.47;77282.47;5015570;28;20040;-78
2022/10/30 08:57:51;;;;;;;28.58;8.23;;;;;;;-143.48;39.49;77113.97;5015728;28;20030;-78
2022/10/30 09:00:16;;;;;;;20.75;7.35;;;;;;;-143.48;40.14;77226.97;5017139;28;20034;-79
2022/10/30 09:02:42;;;;;;;17.48;7.70;;;;;;;-143.48;42.69;77405.41;5017091;28;20030;-79
2022/10/30 09:05:08;;;;;;;26.90;7.75;;;;;;;-143.48;43.41;77409.38;5015549;28;20369;-79
2022/10/30 09:07:34;;;;;;;19.20;7.60;;;;;;;-143.48;42.18;77361.78;5017312;28;20094;-79
2022/10/30 09:10:00;;;;;;;23.58;8.00;;;;;;;-143.48;41.03;77280.50;4999243;28;20397;-79
2022/10/30 09:12:25;;;;;;;21.27;7.35;;;;;;;-143.48;39.53;77151.63;5015286;28;20032;-79
2022/10/30 09:14:50;;;;;;;24.80;7.45;;;;;;;-143.48;37.92;77088.19;5015539;28;20032;-79
2022/10/30 09:17:16;;;;;;;21.58;7.20;;;;;;;-143.48;38.72;77076.28;5016798;28;20030;-79
2022/10/30 09:19:41;;;;;;;20.45;6.93;;;;;;;-143.48;37.03;76953.38;5016797;28;20030;-79
2022/10/30 09:22:06;;;;;;;20.73;7.45;;;;;;;-143.48;40.73;77304.28;5016318;28;20098;-79
2022/10/30 09:24:32;;;;;;;20.35;7.35;;;;;;;-143.48;41.46;77284.47;5014517;28;20117;-79
2022/10/30 09:26:57;;;;;;;19.48;7.15;;;;;;;-143.48;39.94;77173.44;5015981;28;20398;-79
2022/10/30 09:29:23;;;;;;;20.58;7.30;;;;;;;-143.48;38.87;77115.94;5015353;28;20021;-80
2022/10/30 09:31:48;;;;;;;18.00;7.00;;;;;;;-143.48;37.35;76967.25;5014847;28;20049;-80
2022/10/30 09:34:14;;;;;;;20.00;7.13;;;;;;;-143.48;40.79;77254.72;5013794;28;20484;-79
2022/10/30 09:36:42;;;;;;;17.50;6.80;;;;;;;-143.48;38.75;77086.19;5015659;28;20025;-80
2022/10/30 09:39:08;;;;;;;19.90;7.35;;;;;;;-143.48;36.44;76927.59;5013301;28;20033;-80
2022/10/30 09:42:11;;;;;;;19.95;6.85;;;;;;;-143.48;36.84;77060.44;5015602;28;20144;-80
2022/10/30 09:44:53;;;;;;;18.77;6.93;;;;;;;-143.48;36.54;76965.25;5030987;28;20048;-80
2022/10/30 09:47:24;;;;;;;18.65;7.05;;;;;;;-143.48;35.97;76907.78;5015210;28;20036;-80
2022/10/30 09:49:59;;;;;;;19.45;7.05;;;;;;;-143.48;35.81;76895.88;5015751;28;20049;-80
2022/10/30 09:52:38;;;;;;;19.92;7.13;;;;;;;-143.48;38.08;77133.78;5014545;28;20030;-80
2022/10/30 09:55:29;;;;;;;16.48;6.78;;;;;;;-143.48;41.12;77324.13;5014560;28;20026;-80
2022/10/30 09:57:58;;;;;;;24.75;7.65;;;;;;;-143.48;37.91;77084.22;5014718;28;20060;-79
2022/10/30 10:00:35;;;;;;;19.10;7.00;;;;;;;-143.48;38.57;77082.22;5016053;28;20033;-80
2022/10/30 10:03:45;;;;;;;24.13;6.70;;;;;;;-143.48;40.03;77232.91;5013721;28;20026;-80
2022/10/30 10:06:16;;;;;;;22.77;7.63;;;;;;;-143.48;41.08;77278.50;5013841;28;20038;-79
2022/10/30 10:08:48;;;;;;;20.77;7.40;;;;;;;-143.48;42.59;77399.47;4997373;28;20104;-79
2022/10/30 10:11:23;;;;;;;;;;;;;;;-143.48;40.30;77209.13;5005820;28;20034;-79
2022/10/30 10:14:12;;;;;;;22.05;7.25;;;;;;;-143.48;37.47;77012.84;5015627;28;19909;-79
2022/10/30 10:16:41;;;;;;;18.95;6.55;;;;;;;-143.48;37.21;77000.94;5015612;28;20547;-80
2022/10/30 10:19:18;;;;;;;23.05;7.80;;;;;;;-143.48;37.84;77115.94;5014356;28;20033;-80
2022/10/30 10:21:56;;;;;;;17.27;6.43;;;;;;;-143.48;38.10;77072.31;5014379;28;20029;-79
2022/10/30 10:24:25;;;;;;;19.80;7.03;;;;;;;-143.48;36.76;76945.44;5015540;28;20025;-77
2022/10/30 10:27:21;;;;;;;20.17;7.03;;;;;;;-143.48;35.92;76901.81;5014058;28;20036;-79
2022/10/30 10:29:52;;;;;;;21.75;7.57;;;;;;;-143.48;36.64;77012.84;5015494;28;20030;-79
2022/10/30 10:32:27;;;;;;;19.35;6.85;;;;;;;-143.48;38.71;77084.22;5014106;28;20029;-80
2022/10/30 10:34:56;;;;;;;17.33;7.40;;;;;;;-143.48;37.32;77034.66;5015261;28;20064;-80
2022/10/30 10:37:37;;;;;;;21.05;7.07;;;;;;;-143.48;36.92;76995.00;5013991;28;20043;-79
2022/10/30 10:40:17;;;;;;;18.27;7.13;;;;;;;-143.48;36.61;76949.41;5015199;28;20034;-79
2022/10/30 10:43:17;;;;;;;23.88;7.43;;;;;;;-143.48;36.95;76911.75;5015490;28;20036;-79
2022/10/30 10:45:58;;;;;;;20.63;7.18;;;;;;;-143.48;35.71;76840.38;5011594;28;20044;-79
2022/10/30 10:49:06;;;;;;;19.27;7.15;;;;;;;-143.48;38.29;77094.13;5014929;28;20073;-79
2022/10/30 10:51:55;;;;;;;17.77;6.38;;;;;;;-143.48;37.78;77084.22;5013681;28;20477;-79
2022/10/30 10:54:31;;;;;;;23.30;6.72;;;;;;;-143.48;37.17;76993.03;5013640;28;20025;-79
2022/10/30 10:56:58;;;;;;;18.65;6.20;;;;;;;-143.48;37.26;76989.06;5013603;28;20026;-79
2022/10/30 10:59:38;;;;;;;16.27;6.10;;;;;;;-143.48;37.86;77026.72;5014806;28;20033;-80
2022/10/30 11:02:03;;;;;;;19.42;6.13;;;;;;;-143.48;37.68;77034.66;5014716;28;20017;-79
2022/10/30 11:04:38;;;;;;;22.43;6.50;;;;;;;-143.48;38.04;77084.22;5014882;28;20032;-80
2022/10/30 11:07:28;;;;;;;14.32;6.13;;;;;;;-143.48;39.78;77201.19;5013414;28;20112;-80
2022/10/30 11:09:56;;;;;;;22.48;6.70;;;;;;;-143.48;39.79;77193.25;5014643;28;20517;-80
2022/10/30 11:12:45;;;;;;;18.40;6.78;;;;;;;-143.48;39.28;77115.94;5013352;28;20100;-80
2022/10/30 11:15:36;;;;;;;24.17;6.57;;;;;;;-143.48;39.51;77104.03;5014388;28;20081;-80
2022/10/30 11:18:05;;;;;;;28.40;6.63;;;;;;;-143.48;39.80;77113.97;5014551;28;20037;-80